Time;durP1;ratioP1;P1;durP2;ratioP2;P2;SDS_P1;SDS_P2;PMS_P1;PMS_P2;Temp;Humidity;BMP_temperature;BMP_pressure;BME280_temperature;BME280_humidity;BME280_pressure;Samples;Min_cycle;Max_cycle;Signal;HPM_P1;HPM_P2
2023/07/20 00:01:49;;;;;;;2.17;1.87;;;19.30;99.90;;;;;;5082138;28;20517;-94
2023/07/20 00:04:15;;;;;;;2.10;1.90;;;19.20;99.90;;;;;;5067083;28;20437;-92
2023/07/20 00:06:42;;;;;;;4.33;2.10;;;19.10;99.90;;;;;;5068545;28;20484;-92
2023/07/20 00:09:09;;;;;;;2.33;1.80;;;19.10;99.90;;;;;;5071142;28;20526;-94
2023/07/20 00:11:38;;;;;;;1.57;1.33;;;19.00;99.90;;;;;;5070317;28;20465;-93
2023/07/20 00:14:05;;;;;;;2.07;1.40;;;19.00;99.90;;;;;;5067682;28;20475;-92
2023/07/20 00:16:32;;;;;;;3.73;1.90;;;18.90;99.90;;;;;;5067492;28;20444;-94
2023/07/20 00:19:00;;;;;;;2.47;2.20;;;18.90;99.90;;;;;;5070221;28;20455;-93
2023/07/20 00:21:27;;;;;;;2.23;1.90;;;18.80;99.90;;;;;;5070386;28;20461;-93
2023/07/20 00:23:54;;;;;;;1.80;1.60;;;18.70;99.90;;;;;;5070547;28;20475;-94
2023/07/20 00:26:20;;;;;;;2.00;1.80;;;18.70;99.90;;;;;;5070682;28;20459;-93
2023/07/20 00:28:47;;;;;;;2.30;1.90;;;18.60;99.90;;;;;;5068956;28;20478;-93
2023/07/20 00:31:14;;;;;;;2.40;1.83;;;18.50;99.90;;;;;;5058937;28;20564;-93
2023/07/20 00:33:41;;;;;;;3.03;2.20;;;18.50;99.90;;;;;;5067279;28;20456;-93
2023/07/20 00:36:09;;;;;;;2.60;2.30;;;18.40;99.90;;;;;;5070269;28;20436;-94
2023/07/20 00:38:36;;;;;;;2.67;2.10;;;18.30;99.90;;;;;;5070110;28;20447;-94
2023/07/20 00:41:02;;;;;;;2.60;2.10;;;18.20;99.90;;;;;;5058527;28;20476;-93
2023/07/20 00:43:29;;;;;;;2.30;2.10;;;18.20;99.90;;;;;;5067108;28;20444;-95
2023/07/20 00:45:56;;;;;;;2.20;2.00;;;18.20;99.90;;;;;;5070224;28;20448;-92
2023/07/20 00:48:24;;;;;;;1.97;1.77;;;18.10;99.90;;;;;;5071292;28;20456;-93
2023/07/20 00:50:51;;;;;;;3.70;2.20;;;18.10;99.90;;;;;;5060158;28;20484;-94
2023/07/20 00:53:20;;;;;;;3.20;1.97;;;18.00;99.90;;;;;;5058393;28;20480;-93
2023/07/20 00:55:47;;;;;;;2.27;2.07;;;18.00;99.90;;;;;;5058162;28;20491;-93
2023/07/20 00:58:13;;;;;;;2.90;2.23;;;18.00;99.90;;;;;;5058220;28;20442;-93
2023/07/20 01:04:14;;;;;;;4.60;1.87;;;18.00;99.90;;;;;;5034490;22;20507;-69
2023/07/20 01:06:50;;;;;;;2.10;1.60;;;17.90;99.90;;;;;;5030955;28;20457;-68
2023/07/20 01:09:25;;;;;;;3.10;1.93;;;18.00;99.90;;;;;;5031067;28;20458;-69
2023/07/20 01:12:01;;;;;;;2.00;1.90;;;17.90;99.90;;;;;;5029514;28;20487;-69
2023/07/20 01:14:28;;;;;;;2.13;1.97;;;17.90;99.90;;;;;;5030299;28;20464;-69
2023/07/20 01:16:55;;;;;;;2.53;1.87;;;17.80;99.90;;;;;;5030683;28;20910;-69
2023/07/20 01:19:22;;;;;;;2.30;2.10;;;17.70;99.90;;;;;;5031318;28;20465;-69
2023/07/20 01:21:56;;;;;;;1.70;1.53;;;17.70;99.90;;;;;;5030665;28;20456;-69
2023/07/20 01:24:40;;;;;;;2.20;2.00;;;17.70;99.90;;;;;;5031415;28;20871;-69
2023/07/20 01:27:28;;;;;;;2.13;1.87;;;17.70;99.90;;;;;;5030706;28;20508;-69
2023/07/20 01:30:17;;;;;;;2.90;1.97;;;17.60;99.90;;;;;;5030881;28;20467;-69
2023/07/20 01:32:48;;;;;;;2.00;1.70;;;17.60;99.90;;;;;;5027258;28;21003;-69
2023/07/20 01:35:16;;;;;;;2.77;2.03;;;17.50;99.90;;;;;;5030796;28;20461;-69
2023/07/20 01:37:45;;;;;;;2.30;1.93;;;17.40;99.90;;;;;;5030617;28;20874;-69
2023/07/20 01:40:14;;;;;;;1.70;1.30;;;17.40;99.90;;;;;;5030705;28;20463;-69
2023/07/20 01:42:45;;;;;;;2.90;1.90;;;17.30;99.90;;;;;;5031031;28;20455;-69
2023/07/20 01:45:11;;;;;;;2.63;2.07;;;17.30;99.90;;;;;;5029473;28;20464;-69
2023/07/20 01:47:38;;;;;;;1.63;1.53;;;17.20;99.90;;;;;;5030740;28;20488;-69
2023/07/20 01:50:08;;;;;;;2.50;2.00;;;17.10;99.90;;;;;;5030263;28;21126;-69
2023/07/20 01:52:34;;;;;;;2.80;1.80;;;17.00;99.90;;;;;;5030483;28;20486;-69
2023/07/20 01:55:01;;;;;;;1.73;1.60;;;17.00;99.90;;;;;;5029765;28;20469;-69
2023/07/20 01:57:28;;;;;;;3.10;2.07;;;17.00;99.90;;;;;;5029936;28;21026;-69
2023/07/20 01:59:54;;;;;;;3.70;2.20;;;16.90;99.90;;;;;;5029475;28;20466;-69
2023/07/20 02:02:21;;;;;;;4.00;2.43;;;16.90;99.90;;;;;;5029239;28;20959;-69
2023/07/20 02:04:48;;;;;;;2.20;1.50;;;16.90;99.90;;;;;;5029844;28;20847;-69
2023/07/20 02:07:16;;;;;;;2.00;1.80;;;16.90;99.90;;;;;;5029680;28;20492;-69
2023/07/20 02:09:42;;;;;;;2.47;2.10;;;16.90;99.90;;;;;;5029666;28;20468;-69
2023/07/20 02:12:10;;;;;;;2.27;1.70;;;16.90;99.90;;;;;;5029822;28;20991;-69
2023/07/20 02:14:36;;;;;;;2.43;2.20;;;16.90;99.90;;;;;;5029992;28;20464;-69
2023/07/20 02:17:03;;;;;;;2.23;1.60;;;16.90;99.90;;;;;;5029073;28;20513;-69
2023/07/20 02:19:31;;;;;;;2.30;2.00;;;16.90;99.90;;;;;;5030174;28;20468;-69
2023/07/20 02:21:58;;;;;;;2.20;2.00;;;16.90;99.90;;;;;;5029420;28;20467;-68
2023/07/20 02:24:26;;;;;;;1.90;1.70;;;16.90;99.90;;;;;;5029572;28;20956;-69
2023/07/20 02:26:53;;;;;;;3.03;2.33;;;16.90;99.90;;;;;;5029125;28;20485;-69
2023/07/20 02:29:19;;;;;;;2.57;2.37;;;16.90;99.90;;;;;;5029972;28;20474;-69
2023/07/20 02:31:46;;;;;;;1.90;1.67;;;16.90;99.90;;;;;;5029686;28;20487;-70
2023/07/20 02:34:13;;;;;;;3.07;2.60;;;16.90;99.90;;;;;;5029443;28;20475;-69
2023/07/20 02:36:42;;;;;;;2.33;1.93;;;16.80;99.90;;;;;;5029685;28;20519;-69
2023/07/20 02:39:09;;;;;;;2.67;1.80;;;16.80;99.90;;;;;;5028884;28;20476;-70
2023/07/20 02:41:37;;;;;;;2.40;2.00;;;16.80;99.90;;;;;;5030100;28;20479;-69
2023/07/20 02:44:04;;;;;;;2.20;1.70;;;16.80;99.90;;;;;;5029491;28;20471;-69
2023/07/20 02:46:30;;;;;;;2.13;1.80;;;16.80;99.90;;;;;;5028834;28;20491;-69
2023/07/20 02:48:57;;;;;;;2.00;1.60;;;16.70;99.90;;;;;;5029292;28;20521;-69
2023/07/20 02:51:24;;;;;;;1.77;1.67;;;16.80;99.90;;;;;;5029837;28;20839;-69
2023/07/20 02:53:51;;;;;;;2.57;2.33;;;16.70;99.90;;;;;;5029159;28;20570;-69
2023/07/20 02:56:17;;;;;;;2.30;1.83;;;16.70;99.90;;;;;;5029065;28;20466;-69
2023/07/20 02:58:46;;;;;;;1.80;1.50;;;16.70;99.90;;;;;;5029248;28;20487;-69
2023/07/20 03:01:14;;;;;;;3.20;2.20;;;16.70;99.90;;;;;;5027734;28;20462;-69
2023/07/20 03:03:45;;;;;;;4.07;1.70;;;16.60;99.90;;;;;;5029921;28;20571;-69
2023/07/20 03:06:12;;;;;;;4.93;2.30;;;16.60;99.90;;;;;;5028988;28;20910;-70
2023/07/20 03:08:41;;;;;;;2.20;1.70;;;16.60;99.90;;;;;;5029831;28;20486;-69
2023/07/20 03:11:08;;;;;;;2.60;1.73;;;16.60;99.90;;;;;;5029501;28;20479;-69
2023/07/20 03:13:34;;;;;;;1.70;1.60;;;16.70;99.90;;;;;;5030121;28;20473;-70
2023/07/20 03:16:02;;;;;;;1.80;1.50;;;16.70;99.90;;;;;;5028947;28;20463;-69
2023/07/20 03:18:29;;;;;;;2.63;1.97;;;16.70;99.90;;;;;;5029701;28;20489;-69
2023/07/20 03:20:56;;;;;;;2.47;2.07;;;16.60;99.90;;;;;;5029400;28;20470;-70
2023/07/20 03:23:22;;;;;;;1.80;1.63;;;16.60;99.90;;;;;;5029652;28;20448;-70
2023/07/20 03:25:49;;;;;;;2.63;2.13;;;16.50;99.90;;;;;;5029413;28;20469;-69
2023/07/20 03:28:16;;;;;;;2.40;2.07;;;16.50;99.90;;;;;;5029422;28;21055;-69
2023/07/20 03:30:42;;;;;;;2.00;1.80;;;16.40;99.90;;;;;;5009237;28;20458;-69
2023/07/20 03:33:10;;;;;;;2.03;1.73;;;16.40;99.90;;;;;;5006502;28;20486;-68
2023/07/20 03:35:37;;;;;;;3.20;2.70;;;16.40;99.90;;;;;;5006715;28;20466;-68
2023/07/20 03:38:05;;;;;;;3.27;1.97;;;16.40;99.90;;;;;;5007887;28;20485;-69
2023/07/20 03:40:32;;;;;;;2.20;2.00;;;16.30;99.90;;;;;;5010430;28;20548;-69
2023/07/20 03:42:58;;;;;;;3.30;2.07;;;16.30;99.90;;;;;;5010791;28;20198;-69
2023/07/20 03:45:25;;;;;;;2.33;2.00;;;16.40;99.90;;;;;;5010662;28;20947;-69
2023/07/20 03:47:52;;;;;;;2.03;1.83;;;16.40;99.90;;;;;;5013300;28;20483;-69
2023/07/20 03:50:20;;;;;;;3.37;2.20;;;16.40;99.90;;;;;;5012862;28;20472;-69
2023/07/20 03:52:46;;;;;;;4.03;2.10;;;16.40;99.90;;;;;;5021593;28;20490;-69
2023/07/20 03:55:13;;;;;;;2.27;2.07;;;16.40;99.90;;;;;;5012752;28;20934;-69
2023/07/20 03:57:40;;;;;;;2.70;1.70;;;16.40;99.90;;;;;;5027284;28;20485;-69
2023/07/20 04:00:09;;;;;;;2.70;1.80;;;16.40;99.90;;;;;;5032087;28;20467;-69
2023/07/20 04:02:35;;;;;;;2.47;1.60;;;16.40;99.90;;;;;;5032789;28;20467;-70
2023/07/20 04:05:02;;;;;;;2.20;2.00;;;16.40;99.90;;;;;;5031508;28;20473;-69
2023/07/20 04:07:30;;;;;;;2.10;1.90;;;16.40;99.90;;;;;;5032862;28;20490;-69
2023/07/20 04:09:57;;;;;;;2.37;1.73;;;16.40;99.90;;;;;;5016113;28;20979;-69
2023/07/20 04:12:24;;;;;;;2.00;1.67;;;16.40;99.90;;;;;;5016548;28;20510;-69
2023/07/20 04:14:50;;;;;;;2.80;2.20;;;16.40;99.90;;;;;;5017296;28;20987;-69
2023/07/20 04:17:19;;;;;;;3.30;2.20;;;16.40;99.90;;;;;;5012111;28;20934;-68
2023/07/20 04:19:45;;;;;;;3.40;2.13;;;16.40;99.90;;;;;;5019578;28;20850;-68
2023/07/20 04:22:15;;;;;;;2.90;2.60;;;16.40;99.90;;;;;;5019532;28;20472;-71
2023/07/20 04:24:43;;;;;;;2.70;2.20;;;16.50;99.90;;;;;;5013377;28;20468;-74
2023/07/20 04:27:10;;;;;;;1.80;1.70;;;16.50;99.90;;;;;;5030478;28;20487;-75
2023/07/20 04:29:36;;;;;;;2.83;2.47;;;16.50;99.90;;;;;;5027672;28;20991;-71
2023/07/20 04:32:03;;;;;;;3.10;1.83;;;16.60;99.90;;;;;;5018508;28;20468;-71
2023/07/20 04:34:30;;;;;;;2.20;2.00;;;16.60;99.90;;;;;;5029014;28;20469;-71
2023/07/20 04:36:57;;;;;;;3.60;1.93;;;16.70;99.90;;;;;;5028988;28;21022;-71
2023/07/20 04:39:23;;;;;;;2.00;1.80;;;16.70;99.90;;;;;;5028618;28;20463;-73
2023/07/20 04:41:51;;;;;;;2.27;2.00;;;16.80;99.90;;;;;;5031000;28;20472;-74
2023/07/20 04:44:18;;;;;;;3.10;2.67;;;16.80;99.90;;;;;;5029479;28;20837;-74
2023/07/20 04:46:45;;;;;;;2.60;1.97;;;16.80;99.90;;;;;;5029756;28;20467;-71
2023/07/20 04:49:12;;;;;;;2.60;1.87;;;16.80;99.90;;;;;;5031381;28;20464;-71
2023/07/20 04:51:39;;;;;;;2.07;1.87;;;16.90;99.90;;;;;;5026763;28;20465;-71
2023/07/20 04:54:06;;;;;;;2.30;2.10;;;16.90;99.90;;;;;;5028497;28;21029;-70
2023/07/20 04:56:33;;;;;;;2.30;1.73;;;17.00;99.90;;;;;;5031604;28;20467;-73
2023/07/20 04:59:01;;;;;;;4.40;1.77;;;17.00;99.90;;;;;;5023670;28;20514;-73
2023/07/20 05:01:28;;;;;;;2.50;1.90;;;17.00;99.90;;;;;;5003757;28;20476;-75
2023/07/20 05:03:55;;;;;;;2.33;2.00;;;17.10;99.90;;;;;;5011862;28;20461;-74
2023/07/20 05:06:21;;;;;;;2.53;2.13;;;17.10;99.90;;;;;;5011082;28;20467;-73
2023/07/20 05:08:48;;;;;;;2.10;1.90;;;17.10;99.90;;;;;;5011818;28;20488;-72
2023/07/20 05:11:15;;;;;;;2.07;1.57;;;17.10;99.90;;;;;;5011370;28;20461;-77
2023/07/20 05:13:42;;;;;;;2.77;1.97;;;17.10;99.90;;;;;;5004184;28;20572;-77
2023/07/20 05:16:10;;;;;;;2.87;2.03;;;17.20;99.90;;;;;;5020406;28;20463;-77
2023/07/20 05:18:37;;;;;;;2.00;1.73;;;17.20;99.90;;;;;;5016821;28;20484;-77
2023/07/20 05:21:04;;;;;;;2.47;2.03;;;17.30;99.90;;;;;;5008537;28;20460;-77
2023/07/20 05:23:30;;;;;;;2.30;1.93;;;17.30;99.90;;;;;;5026964;28;20465;-75
2023/07/20 05:25:57;;;;;;;3.57;2.20;;;17.30;99.90;;;;;;5026920;28;20472;-75
2023/07/20 05:28:24;;;;;;;2.73;1.80;;;17.30;99.90;;;;;;5030791;28;21379;-75
2023/07/20 05:30:52;;;;;;;2.17;1.97;;;17.30;99.90;;;;;;5023175;28;20467;-74
2023/07/20 05:33:20;;;;;;;2.90;1.80;;;17.40;99.90;;;;;;5030723;28;20521;-75
2023/07/20 05:35:47;;;;;;;3.60;1.80;;;17.40;99.90;;;;;;5016851;28;20461;-75
2023/07/20 05:38:14;;;;;;;2.20;1.73;;;17.50;99.90;;;;;;5028210;28;20490;-76
2023/07/20 05:40:42;;;;;;;1.87;1.70;;;17.50;99.90;;;;;;5070697;22;20491;-93
2023/07/20 05:43:09;;;;;;;1.50;1.30;;;17.50;99.90;;;;;;5068694;28;20435;-95
2023/07/20 05:45:36;;;;;;;2.00;1.80;;;17.50;99.90;;;;;;5064964;28;20447;-95
2023/07/20 05:48:04;;;;;;;2.00;1.73;;;17.60;99.90;;;;;;5068367;28;20961;-94
2023/07/20 05:50:34;;;;;;;3.40;2.10;;;17.60;99.90;;;;;;5058540;28;20491;-94
2023/07/20 05:53:01;;;;;;;3.47;2.03;;;17.60;99.90;;;;;;5053823;28;20910;-94
2023/07/20 05:55:28;;;;;;;2.83;2.63;;;17.70;99.90;;;;;;5048023;28;20524;-93
2023/07/20 05:57:55;;;;;;;2.43;1.90;;;17.60;99.90;;;;;;5052249;28;20832;-94
2023/07/20 06:00:26;;;;;;;2.10;1.63;;;17.70;99.90;;;;;;5041899;28;20508;-93
2023/07/20 06:02:56;;;;;;;3.00;1.90;;;17.70;99.90;;;;;;5037221;28;20883;-94
2023/07/20 06:05:23;;;;;;;2.93;2.20;;;17.80;99.90;;;;;;5034998;28;20517;-93
2023/07/20 06:07:51;;;;;;;2.50;1.80;;;17.80;99.90;;;;;;5036399;28;20468;-92
2023/07/20 06:10:19;;;;;;;2.07;1.63;;;17.90;99.90;;;;;;5036679;28;20499;-94
2023/07/20 06:12:46;;;;;;;3.77;2.00;;;17.90;99.90;;;;;;5038992;28;20468;-94
2023/07/20 06:15:26;;;;;;;1.60;1.50;;;18.00;99.90;;;;;;5038452;28;20457;-93
2023/07/20 06:17:54;;;;;;;2.13;1.77;;;18.00;99.90;;;;;;5042064;28;20464;-94
2023/07/20 06:20:21;;;;;;;1.87;1.60;;;18.00;99.90;;;;;;5039422;28;20481;-95
2023/07/20 06:22:48;;;;;;;5.57;2.20;;;18.10;99.90;;;;;;5038920;28;20981;-95
2023/07/20 06:25:16;;;;;;;2.50;2.13;;;18.10;99.90;;;;;;5038385;28;20448;-94
2023/07/20 06:27:44;;;;;;;2.50;1.80;;;18.20;99.90;;;;;;5036782;28;20878;-93
2023/07/20 06:30:11;;;;;;;4.50;2.10;;;18.20;99.90;;;;;;5035549;28;20495;-93
2023/07/20 06:32:39;;;;;;;2.37;1.60;;;18.20;99.90;;;;;;5035051;28;20452;-93
2023/07/20 06:35:08;;;;;;;3.47;1.80;;;18.20;99.90;;;;;;5034915;28;20491;-92
2023/07/20 06:37:35;;;;;;;2.47;2.00;;;18.20;99.90;;;;;;5034859;28;20499;-92
2023/07/20 06:40:03;;;;;;;1.70;1.60;;;18.30;99.90;;;;;;5034003;28;20492;-93
2023/07/20 06:43:00;;;;;;;2.20;2.00;;;18.30;99.90;;;;;;5036953;28;20471;-92
2023/07/20 06:45:27;;;;;;;2.27;1.93;;;18.40;99.90;;;;;;5037564;28;20491;-92
2023/07/20 06:47:53;;;;;;;1.90;1.70;;;18.40;99.90;;;;;;5038259;28;20460;-92
2023/07/20 06:50:20;;;;;;;2.07;1.87;;;18.40;99.90;;;;;;5038811;28;20844;-94
2023/07/20 06:52:48;;;;;;;3.20;2.10;;;18.50;99.90;;;;;;5038875;28;20456;-93
2023/07/20 06:55:15;;;;;;;2.60;2.40;;;18.50;99.90;;;;;;5037653;28;20480;-93
2023/07/20 06:57:42;;;;;;;2.80;2.13;;;18.50;99.90;;;;;;5038937;28;20460;-93
2023/07/20 07:00:17;;;;;;;2.13;1.93;;;18.60;99.90;;;;;;5034560;28;20493;-91
2023/07/20 07:02:44;;;;;;;2.10;1.73;;;18.60;99.90;;;;;;5036896;28;20554;-93
2023/07/20 07:05:15;;;;;;;2.00;1.80;;;18.70;99.90;;;;;;5036890;28;20469;-91
2023/07/20 07:07:42;;;;;;;3.60;2.00;;;18.60;99.90;;;;;;5035796;28;21038;-91
2023/07/20 07:10:22;;;;;;;2.40;2.20;;;18.70;99.90;;;;;;5041495;28;20481;-92
2023/07/20 07:12:51;;;;;;;2.90;1.80;;;18.70;99.90;;;;;;5045042;28;20464;-92
2023/07/20 07:15:53;;;;;;;2.90;2.17;;;18.80;99.90;;;;;;5041564;28;20993;-93
2023/07/20 07:22:25;;;;;;;2.00;1.80;;;19.00;99.90;;;;;;5046767;28;20473;-92
2023/07/20 07:25:44;;;;;;;2.83;2.07;;;19.10;99.90;;;;;;5051534;28;20471;-94
2023/07/20 07:28:47;;;;;;;2.40;2.00;;;19.20;99.90;;;;;;5056332;28;20489;-94
2023/07/20 07:33:55;;;;;;;2.87;2.13;;;19.20;99.90;;;;;;5018131;28;20473;-72
2023/07/20 07:36:24;;;;;;;2.10;1.70;;;19.30;99.90;;;;;;5017643;28;20456;-71
2023/07/20 07:38:51;;;;;;;1.83;1.57;;;19.40;99.90;;;;;;5032789;28;20473;-74
2023/07/20 07:41:17;;;;;;;3.07;2.10;;;19.50;99.90;;;;;;5029748;28;20464;-76
2023/07/20 07:43:44;;;;;;;2.33;2.13;;;19.60;99.90;;;;;;5024579;28;21252;-76
2023/07/20 07:46:11;;;;;;;2.33;1.87;;;19.70;99.90;;;;;;5018467;28;20468;-76
2023/07/20 07:48:39;;;;;;;3.90;2.57;;;19.70;99.90;;;;;;5011800;28;20486;-75
2023/07/20 07:51:05;;;;;;;3.30;2.27;;;19.80;99.90;;;;;;5012643;28;20464;-76
2023/07/20 07:53:33;;;;;;;2.80;2.10;;;19.80;99.90;;;;;;5016375;28;20861;-75
2023/07/20 07:56:00;;;;;;;4.10;2.43;;;19.90;99.90;;;;;;5032942;28;20466;-73
2023/07/20 07:58:27;;;;;;;3.20;2.10;;;19.90;99.90;;;;;;5009104;28;20485;-75
2023/07/20 08:00:53;;;;;;;2.30;2.10;;;19.80;99.90;;;;;;5012235;28;20472;-74
2023/07/20 08:03:21;;;;;;;4.13;2.37;;;19.80;99.90;;;;;;5015302;28;20841;-74
2023/07/20 08:05:49;;;;;;;3.10;2.23;;;19.70;99.90;;;;;;5019964;28;21052;-75
2023/07/20 08:08:16;;;;;;;2.20;2.00;;;19.80;99.90;;;;;;5012412;28;20485;-73
2023/07/20 08:10:43;;;;;;;2.13;1.93;;;19.80;99.90;;;;;;5015098;28;20460;-74
2023/07/20 08:13:10;;;;;;;2.50;2.30;;;19.70;99.90;;;;;;5022262;28;20470;-75
2023/07/20 08:15:37;;;;;;;2.53;2.20;;;19.70;99.90;;;;;;5013979;28;20499;-73
2023/07/20 08:18:04;;;;;;;2.93;2.50;;;19.60;99.90;;;;;;4998707;28;20931;-75
2023/07/20 08:20:32;;;;;;;2.83;2.20;;;19.70;99.90;;;;;;5010999;28;20473;-73
2023/07/20 08:23:00;;;;;;;2.83;2.63;;;19.70;99.90;;;;;;5011297;28;20466;-73
2023/07/20 08:25:26;;;;;;;2.03;1.83;;;19.80;99.90;;;;;;5011745;28;20470;-75
2023/07/20 08:27:53;;;;;;;2.20;2.00;;;19.80;99.90;;;;;;5029055;28;20560;-76
2023/07/20 08:30:23;;;;;;;2.40;2.10;;;19.80;99.90;;;;;;5012423;28;20470;-75
2023/07/20 08:32:49;;;;;;;4.20;2.23;;;19.90;99.90;;;;;;5012396;28;20470;-74
2023/07/20 08:35:18;;;;;;;2.17;1.87;;;20.10;99.90;;;;;;5010261;28;20491;-73
2023/07/20 08:37:45;;;;;;;3.23;2.00;;;20.30;99.90;;;;;;5010237;28;20914;-73
2023/07/20 08:40:15;;;;;;;3.03;2.27;;;20.50;99.90;;;;;;5018595;28;20465;-77
2023/07/20 08:42:43;;;;;;;5.00;2.33;;;20.60;99.90;;;;;;5031179;28;20472;-73
2023/07/20 08:45:12;;;;;;;2.73;2.03;;;20.60;99.90;;;;;;5025014;28;20468;-73
2023/07/20 08:47:39;;;;;;;1.77;1.67;;;20.60;99.90;;;;;;5013518;28;20488;-72
2023/07/20 08:50:08;;;;;;;2.60;2.10;;;20.60;99.90;;;;;;5030563;28;20530;-72
2023/07/20 08:52:36;;;;;;;1.90;1.70;;;20.50;99.90;;;;;;5031189;28;20519;-71
2023/07/20 08:55:04;;;;;;;2.60;2.03;;;20.40;99.90;;;;;;5031202;28;20990;-72
2023/07/20 08:57:34;;;;;;;2.63;1.73;;;20.30;99.90;;;;;;5032476;28;20965;-71
2023/07/20 09:00:04;;;;;;;2.43;1.90;;;20.30;99.90;;;;;;5015830;28;20553;-75
2023/07/20 09:02:36;;;;;;;1.77;1.67;;;20.30;99.90;;;;;;5010084;28;20471;-74
2023/07/20 09:05:03;;;;;;;3.47;2.00;;;20.50;99.90;;;;;;5010671;28;20503;-73
2023/07/20 09:07:30;;;;;;;2.30;2.10;;;20.60;99.90;;;;;;5011390;28;20685;-74
2023/07/20 09:09:58;;;;;;;2.00;1.70;;;20.70;99.90;;;;;;5019941;28;20570;-74
2023/07/20 09:12:27;;;;;;;1.57;1.47;;;20.80;99.90;;;;;;5013250;28;20987;-76
2023/07/20 09:14:59;;;;;;;2.23;2.03;;;20.80;99.90;;;;;;5004166;28;20480;-75
2023/07/20 09:17:27;;;;;;;1.90;1.70;;;20.70;99.90;;;;;;5011724;28;20985;-75
2023/07/20 09:19:55;;;;;;;1.93;1.60;;;20.60;99.90;;;;;;5007207;28;20461;-75
2023/07/20 09:22:23;;;;;;;2.60;2.00;;;20.60;99.90;;;;;;5031545;28;20517;-75
2023/07/20 09:24:53;;;;;;;1.97;1.80;;;20.70;99.90;;;;;;5019689;28;20503;-75
2023/07/20 09:27:20;;;;;;;2.30;2.10;;;21.00;99.90;;;;;;5029739;28;20487;-76
2023/07/20 09:29:50;;;;;;;2.47;2.00;;;21.30;99.50;;;;;;5022631;28;20479;-75
2023/07/20 09:32:21;;;;;;;2.20;1.80;;;21.20;99.90;;;;;;5010976;28;20617;-76
2023/07/20 09:34:50;;;;;;;2.07;1.73;;;21.10;99.40;;;;;;5011275;28;20492;-78
2023/07/20 09:37:21;;;;;;;2.67;1.73;;;21.10;99.90;;;;;;5027765;28;21231;-73
2023/07/20 09:39:49;;;;;;;5.70;1.90;;;21.10;99.90;;;;;;5027701;28;20478;-71
2023/07/20 09:42:16;;;;;;;1.90;1.63;;;21.00;99.90;;;;;;5010150;28;20465;-71
2023/07/20 09:44:45;;;;;;;1.97;1.77;;;20.90;99.90;;;;;;5010167;28;20492;-72
2023/07/20 09:47:12;;;;;;;2.63;1.50;;;20.80;99.90;;;;;;5010153;28;20594;-71
2023/07/20 09:49:42;;;;;;;2.57;1.90;;;20.80;99.90;;;;;;5011123;28;20838;-71
2023/07/20 09:52:10;;;;;;;2.10;1.67;;;20.70;99.90;;;;;;5028456;28;20463;-77
2023/07/20 09:54:39;;;;;;;2.77;1.83;;;20.70;99.90;;;;;;5012731;28;20484;-72
2023/07/20 09:57:09;;;;;;;2.33;2.00;;;20.80;99.90;;;;;;5022624;28;20492;-72
2023/07/20 09:59:36;;;;;;;1.67;1.57;;;20.80;99.90;;;;;;5029352;28;20596;-72
2023/07/20 10:02:11;;;;;;;1.77;1.67;;;21.00;99.90;;;;;;5018607;28;20473;-72
2023/07/20 10:04:38;;;;;;;1.80;1.70;;;21.20;99.90;;;;;;5017955;28;20478;-72
2023/07/20 10:07:12;;;;;;;2.20;1.70;;;21.50;99.90;;;;;;5009817;28;20496;-72
2023/07/20 10:09:41;;;;;;;3.70;1.90;;;21.80;97.90;;;;;;5009724;28;20493;-72
2023/07/20 10:12:10;;;;;;;3.83;1.90;;;22.10;99.90;;;;;;5009977;28;20500;-72
2023/07/20 10:14:42;;;;;;;2.83;2.00;;;22.30;99.90;;;;;;5009471;28;20477;-73
2023/07/20 10:17:12;;;;;;;1.90;1.70;;;22.40;99.90;;;;;;5009963;28;20481;-73
2023/07/20 10:19:45;;;;;;;1.90;1.70;;;22.30;99.30;;;;;;5009366;28;20466;-72
2023/07/20 10:22:16;;;;;;;1.50;1.40;;;22.30;99.90;;;;;;5010069;28;20474;-73
2023/07/20 10:24:46;;;;;;;2.60;1.63;;;22.30;99.90;;;;;;5027747;28;20465;-72
2023/07/20 10:27:14;;;;;;;2.10;1.70;;;22.40;99.90;;;;;;5029365;28;21036;-73
2023/07/20 10:29:42;;;;;;;1.60;1.50;;;22.50;99.90;;;;;;5012832;28;20466;-73
2023/07/20 10:32:09;;;;;;;2.17;1.97;;;22.70;99.90;;;;;;5010510;28;20485;-73
2023/07/20 10:34:36;;;;;;;2.00;1.77;;;22.90;99.30;;;;;;5009416;28;20497;-73
2023/07/20 10:37:03;;;;;;;2.10;1.73;;;23.00;99.90;;;;;;5009457;28;20491;-73
2023/07/20 10:39:33;;;;;;;1.87;1.67;;;23.10;99.60;;;;;;5009779;28;20937;-72
2023/07/20 10:42:04;;;;;;;2.03;1.83;;;23.20;99.90;;;;;;5008951;28;20460;-73
2023/07/20 10:44:31;;;;;;;1.97;1.60;;;23.40;99.70;;;;;;5009553;28;20460;-72
2023/07/20 10:47:02;;;;;;;2.47;2.00;;;23.60;99.90;;;;;;5025198;28;20483;-73
2023/07/20 10:49:29;;;;;;;2.20;1.80;;;23.80;99.20;;;;;;5008703;28;20967;-73
2023/07/20 10:52:00;;;;;;;1.90;1.60;;;23.90;98.60;;;;;;5008846;28;20474;-73
2023/07/20 10:54:51;;;;;;;2.33;1.53;;;23.90;97.30;;;;;;5009552;28;20586;-75
2023/07/20 10:57:30;;;;;;;1.50;1.40;;;23.90;99.90;;;;;;5003028;28;20554;-77
2023/07/20 11:00:22;;;;;;;1.40;1.30;;;24.00;99.70;;;;;;5028344;28;20542;-73
2023/07/20 11:02:50;;;;;;;2.13;1.50;;;24.10;98.70;;;;;;5024135;28;20463;-74
2023/07/20 11:05:36;;;;;;;1.67;1.43;;;24.20;97.50;;;;;;5015677;28;20461;-74
2023/07/20 11:08:10;;;;;;;2.03;1.63;;;24.10;98.00;;;;;;5009319;28;20491;-76
2023/07/20 11:10:39;;;;;;;3.57;1.63;;;24.00;97.30;;;;;;5017171;28;20462;-75
2023/07/20 11:13:23;;;;;;;2.70;1.97;;;23.90;97.30;;;;;;5021512;28;20554;-74
2023/07/20 11:16:04;;;;;;;1.63;1.53;;;23.80;97.70;;;;;;5028102;28;20482;-74
2023/07/20 11:18:33;;;;;;;1.90;1.60;;;24.00;98.30;;;;;;5028491;28;20476;-74
2023/07/20 11:21:00;;;;;;;2.87;1.80;;;24.20;98.80;;;;;;5028230;28;21124;-74
2023/07/20 11:23:27;;;;;;;1.40;1.30;;;24.20;95.00;;;;;;5029040;28;20474;-74
2023/07/20 11:28:23;;;;;;;2.60;1.70;;;24.00;96.60;;;;;;5089364;22;21006;-74
2023/07/20 11:30:54;;;;;;;1.80;1.50;;;23.90;96.20;;;;;;5046035;28;20454;-76
2023/07/20 11:33:20;;;;;;;1.60;1.27;;;23.90;97.10;;;;;;5048592;28;20472;-76
2023/07/20 11:35:47;;;;;;;2.27;1.67;;;24.10;97.50;;;;;;5048111;28;20499;-76
2023/07/20 11:38:14;;;;;;;2.60;1.83;;;24.20;96.80;;;;;;5029087;28;20487;-74
2023/07/20 11:40:44;;;;;;;1.63;1.37;;;24.30;97.00;;;;;;5044320;28;20469;-73
2023/07/20 11:43:12;;;;;;;1.53;1.43;;;24.50;97.50;;;;;;5049928;28;20502;-82
2023/07/20 11:45:41;;;;;;;1.80;1.50;;;24.60;97.60;;;;;;5053309;28;20455;-74
2023/07/20 11:48:08;;;;;;;1.43;1.27;;;24.40;95.00;;;;;;5118419;22;20460;-94
2023/07/20 11:50:39;;;;;;;1.60;1.50;;;24.20;94.80;;;;;;5073396;28;20464;-94
2023/07/20 11:53:07;;;;;;;1.97;1.67;;;23.90;95.00;;;;;;5092751;28;20442;-95
2023/07/20 11:55:38;;;;;;;2.50;1.50;;;23.80;95.30;;;;;;5087085;28;20465;-94
2023/07/20 11:58:05;;;;;;;1.73;1.50;;;23.80;96.20;;;;;;5085552;28;20486;-95
2023/07/20 12:00:32;;;;;;;1.37;1.27;;;23.90;96.60;;;;;;5059179;22;20495;-77
2023/07/20 12:03:01;;;;;;;1.47;1.27;;;24.00;95.10;;;;;;5051844;28;20987;-76
2023/07/20 12:05:28;;;;;;;4.00;1.50;;;24.00;94.80;;;;;;5039523;28;20491;-77
2023/07/20 12:07:55;;;;;;;2.23;1.50;;;24.20;95.50;;;;;;5032515;28;20538;-77
2023/07/20 12:10:28;;;;;;;1.43;1.30;;;24.20;94.70;;;;;;5032233;28;20460;-78
2023/07/20 12:12:55;;;;;;;3.00;1.57;;;24.30;96.50;;;;;;5034168;28;20531;-77
2023/07/20 12:15:23;;;;;;;1.57;1.23;;;24.50;95.70;;;;;;5032561;28;20480;-76
2023/07/20 12:17:52;;;;;;;1.97;1.53;;;24.70;95.90;;;;;;5032770;28;20487;-78
2023/07/20 12:20:31;;;;;;;2.10;1.73;;;24.90;94.90;;;;;;5035153;28;20461;-76
2023/07/20 12:23:00;;;;;;;1.53;1.43;;;25.10;94.50;;;;;;5034079;28;20460;-77
2023/07/20 12:25:40;;;;;;;2.10;1.47;;;25.10;95.20;;;;;;5033151;28;20472;-76
2023/07/20 12:28:09;;;;;;;1.73;1.50;;;25.20;94.70;;;;;;5032035;28;20482;-77
2023/07/20 12:30:35;;;;;;;3.00;1.73;;;25.40;94.60;;;;;;5033424;28;20886;-76
2023/07/20 12:33:03;;;;;;;1.87;1.40;;;25.50;95.20;;;;;;5029350;28;20483;-75
2023/07/20 12:35:32;;;;;;;1.30;1.20;;;25.60;95.20;;;;;;5032670;28;20472;-76
2023/07/20 12:37:59;;;;;;;2.00;1.60;;;25.80;95.80;;;;;;5034146;28;20480;-77
2023/07/20 12:40:26;;;;;;;1.77;1.40;;;25.90;94.60;;;;;;5032265;28;20463;-76
2023/07/20 12:42:53;;;;;;;1.80;1.50;;;26.00;93.80;;;;;;5033693;28;20457;-75
2023/07/20 12:45:20;;;;;;;1.43;1.33;;;25.90;93.70;;;;;;5033580;28;20457;-76
2023/07/20 12:47:47;;;;;;;1.50;1.40;;;25.60;95.00;;;;;;5033940;28;21033;-75
2023/07/20 12:50:14;;;;;;;1.93;1.53;;;25.30;94.70;;;;;;5034380;28;20469;-75
2023/07/20 12:52:42;;;;;;;1.47;1.30;;;25.00;94.50;;;;;;5033914;28;20460;-75
2023/07/20 12:55:10;;;;;;;2.00;1.80;;;25.10;93.80;;;;;;5028112;28;20480;-77
2023/07/20 12:57:39;;;;;;;1.37;1.20;;;25.10;95.00;;;;;;5014297;28;20477;-76
2023/07/20 13:00:08;;;;;;;1.47;1.37;;;25.40;93.80;;;;;;5029833;28;20464;-76
2023/07/20 13:02:36;;;;;;;2.20;1.33;;;25.60;94.30;;;;;;5016861;28;20555;-76
2023/07/20 13:05:03;;;;;;;1.50;1.40;;;25.60;94.00;;;;;;5030944;28;20464;-76
2023/07/20 13:07:32;;;;;;;1.50;1.40;;;25.60;93.80;;;;;;5034777;28;20540;-78
2023/07/20 13:10:01;;;;;;;1.50;1.40;;;25.60;93.70;;;;;;5034303;28;20465;-75